createdAt,value
2023-01-31T00:00:51.760Z,-15.21
2023-01-31T00:03:20.872Z,-15.26
2023-01-31T00:05:49.863Z,-15.26
2023-01-31T00:08:19.104Z,-15.30
2023-01-31T00:10:47.868Z,-15.40
2023-01-31T00:13:16.734Z,-15.45
2023-01-31T00:15:45.603Z,-15.54
2023-01-31T00:18:14.600Z,-15.61
2023-01-31T00:20:43.472Z,-15.69
2023-01-31T00:23:12.299Z,-15.78
2023-01-31T00:25:41.230Z,-15.87
2023-01-31T00:28:10.062Z,-15.89
2023-01-31T00:30:39.250Z,-15.93
2023-01-31T00:33:08.204Z,-15.93
2023-01-31T00:35:40.776Z,-15.96
2023-01-31T00:38:09.864Z,-15.99
2023-01-31T00:40:39.141Z,-16.04
2023-01-31T00:43:08.423Z,-16.09
2023-01-31T00:45:37.703Z,-16.07
2023-01-31T00:48:06.615Z,-16.07
2023-01-31T00:50:36.021Z,-16.10
2023-01-31T00:53:05.188Z,-16.12
2023-01-31T00:55:34.844Z,-16.12
2023-01-31T00:58:04.431Z,-16.19
2023-01-31T01:00:35.035Z,-16.21
2023-01-31T01:03:04.590Z,-16.23
2023-01-31T01:05:34.154Z,-16.22
2023-01-31T01:08:03.247Z,-16.22
2023-01-31T01:10:32.279Z,-16.23
2023-01-31T01:13:02.884Z,-16.25
2023-01-31T01:15:31.770Z,-16.24
2023-01-31T01:18:00.558Z,-16.24
2023-01-31T01:20:29.379Z,-16.19
2023-01-31T01:22:58.225Z,-16.14
2023-01-31T01:25:27.406Z,-16.20
2023-01-31T01:27:56.169Z,-16.04
2023-01-31T01:30:26.607Z,-15.98
2023-01-31T01:32:56.984Z,-15.96
2023-01-31T01:35:25.861Z,-15.95
2023-01-31T01:37:54.721Z,-15.93
2023-01-31T01:40:24.291Z,-15.90
2023-01-31T01:42:53.165Z,-15.89
2023-01-31T01:45:22.559Z,-15.87
2023-01-31T01:47:57.896Z,-15.85
2023-01-31T01:50:44.661Z,-15.91
2023-01-31T01:53:25.677Z,-15.79
2023-01-31T01:56:07.872Z,-15.75
2023-01-31T01:58:58.221Z,-15.68
2023-01-31T02:01:33.080Z,-15.11
2023-01-31T02:04:03.538Z,-13.85
2023-01-31T02:06:33.032Z,-12.54
2023-01-31T02:09:04.282Z,-11.46
2023-01-31T02:11:33.497Z,-10.71
2023-01-31T02:14:06.099Z,-10.00
2023-01-31T02:16:37.211Z,-9.37
2023-01-31T02:19:18.221Z,-8.89
2023-01-31T02:22:15.681Z,-8.07
2023-01-31T02:25:05.876Z,-7.75
2023-01-31T02:28:09.182Z,-7.32
2023-01-31T02:31:08.489Z,-6.67
2023-01-31T02:33:53.452Z,-6.28
2023-01-31T02:36:57.849Z,-5.78
2023-01-31T02:39:57.541Z,-5.50
2023-01-31T02:42:29.845Z,-5.31
2023-01-31T02:45:20.416Z,-5.09
2023-01-31T02:48:11.278Z,-5.03
2023-01-31T02:50:48.499Z,-4.93
2023-01-31T02:53:50.923Z,-4.55
2023-01-31T02:56:42.215Z,-4.02
2023-01-31T02:59:23.271Z,-3.49
2023-01-31T03:02:04.420Z,-2.94
2023-01-31T03:04:37.317Z,-2.25
2023-01-31T03:07:13.501Z,-1.61
2023-01-31T03:10:03.940Z,-1.32
2023-01-31T03:12:47.886Z,-1.10
2023-01-31T03:16:02.091Z,-0.90
2023-01-31T03:18:37.793Z,-1.26
2023-01-31T03:21:19.493Z,-3.29
2023-01-31T03:23:54.311Z,-5.61
2023-01-31T03:26:24.929Z,-7.35
2023-01-31T03:28:57.888Z,-8.46
2023-01-31T03:31:41.521Z,-9.14
2023-01-31T03:34:13.212Z,-9.69
2023-01-31T03:37:13.559Z,-10.13
2023-01-31T03:40:01.839Z,-10.40
2023-01-31T03:42:51.665Z,-10.51
2023-01-31T03:45:29.392Z,-10.51
2023-01-31T03:48:00.869Z,-10.55
2023-01-31T03:50:39.238Z,-10.60
2023-01-31T03:53:13.748Z,-10.70
2023-01-31T03:55:43.621Z,-10.93
2023-01-31T03:58:16.732Z,-11.03
2023-01-31T04:00:49.730Z,-10.94
2023-01-31T04:03:32.505Z,-10.66
2023-01-31T04:06:02.255Z,-10.06
2023-01-31T04:08:34.250Z,-9.26
2023-01-31T04:11:10.267Z,-8.33
2023-01-31T04:13:39.450Z,-8.24
2023-01-31T04:16:08.852Z,-8.59
2023-01-31T04:18:38.685Z,-7.56
2023-01-31T04:21:08.036Z,-5.35
2023-01-31T04:23:37.537Z,-3.49
2023-01-31T04:26:06.356Z,-2.16
2023-01-31T04:28:35.141Z,-1.13
2023-01-31T04:31:04.055Z,-0.35
2023-01-31T04:33:33.114Z,0.19
2023-01-31T04:36:02.002Z,0.84
2023-01-31T04:38:30.899Z,1.58
2023-01-31T04:40:59.735Z,1.81
2023-01-31T04:43:28.748Z,1.95
2023-01-31T04:45:57.538Z,2.48
2023-01-31T04:48:28.289Z,2.74
2023-01-31T04:50:57.958Z,2.73
2023-01-31T04:53:26.877Z,2.95
2023-01-31T04:55:56.203Z,3.24
2023-01-31T04:58:25.094Z,3.36
2023-01-31T05:00:56.166Z,3.70
2023-01-31T05:03:25.341Z,3.81
2023-01-31T05:05:54.329Z,4.13
2023-01-31T05:08:23.094Z,4.14
2023-01-31T05:10:58.643Z,4.40
2023-01-31T05:13:28.570Z,4.83
2023-01-31T05:15:58.813Z,4.93
2023-01-31T05:18:27.922Z,4.89
2023-01-31T05:20:56.781Z,5.25
2023-01-31T05:23:25.722Z,5.55
2023-01-31T05:25:54.530Z,5.73
2023-01-31T05:28:24.583Z,5.70
2023-01-31T05:30:55.117Z,5.89
2023-01-31T05:33:24.281Z,6.21
2023-01-31T05:35:53.111Z,6.31
2023-01-31T05:38:21.954Z,6.16
2023-01-31T05:40:51.554Z,5.79
2023-01-31T05:43:20.637Z,5.57
2023-01-31T05:45:50.586Z,5.42
2023-01-31T05:48:19.439Z,5.23
2023-01-31T05:50:50.672Z,5.44
2023-01-31T05:53:19.777Z,5.03
2023-01-31T05:55:49.061Z,4.73
2023-01-31T05:58:17.922Z,4.30
2023-01-31T06:00:47.719Z,4.07
2023-01-31T06:03:16.852Z,4.22
2023-01-31T06:05:45.691Z,4.23
2023-01-31T06:08:14.666Z,4.63
2023-01-31T06:10:43.380Z,5.13
2023-01-31T06:13:12.177Z,5.58
2023-01-31T06:15:47.020Z,5.93
2023-01-31T06:18:15.853Z,5.99
2023-01-31T06:20:44.611Z,5.64
2023-01-31T06:23:13.459Z,5.34
2023-01-31T06:25:42.254Z,4.56
2023-01-31T06:28:11.403Z,3.79
2023-01-31T06:30:40.380Z,2.65
2023-01-31T06:33:10.302Z,1.32
2023-01-31T06:35:39.417Z,-0.22
2023-01-31T06:38:08.398Z,-1.73
2023-01-31T06:40:37.229Z,-2.96
2023-01-31T06:43:06.011Z,-4.28
2023-01-31T06:45:34.781Z,-5.27
2023-01-31T06:48:03.615Z,-6.03
2023-01-31T06:50:32.851Z,-6.46
2023-01-31T06:53:01.759Z,-6.84
2023-01-31T06:55:30.582Z,-7.13
2023-01-31T06:57:59.517Z,-7.39
2023-01-31T07:00:30.424Z,-7.69
2023-01-31T07:02:59.685Z,-7.90
2023-01-31T07:05:29.293Z,-8.06
2023-01-31T07:07:58.164Z,-8.21
2023-01-31T07:10:27.033Z,-8.20
2023-01-31T07:12:55.907Z,-8.25
2023-01-31T07:15:24.766Z,-8.41
2023-01-31T07:17:59.556Z,-8.55
2023-01-31T07:20:28.521Z,-8.62
2023-01-31T07:22:58.567Z,-8.77
2023-01-31T07:25:28.809Z,-8.86
2023-01-31T07:27:57.680Z,-8.77
2023-01-31T07:30:27.006Z,-8.61
2023-01-31T07:32:55.935Z,-8.56
2023-01-31T07:35:24.901Z,-8.50
2023-01-31T07:37:53.892Z,-8.48
2023-01-31T07:40:22.952Z,-8.55
2023-01-31T07:42:51.777Z,-8.62
2023-01-31T07:45:23.553Z,-8.72
2023-01-31T07:48:02.339Z,-8.88
2023-01-31T07:50:31.234Z,-9.04
2023-01-31T07:53:00.666Z,-9.16
2023-01-31T07:55:29.831Z,-9.30
2023-01-31T07:57:58.804Z,-9.40
2023-01-31T08:00:47.041Z,-9.45
2023-01-31T08:03:35.773Z,-9.54
2023-01-31T08:06:13.620Z,-9.56
2023-01-31T08:08:44.162Z,-9.54
2023-01-31T08:11:13.300Z,-9.53
2023-01-31T08:13:42.168Z,-8.59
2023-01-31T08:16:11.362Z,-6.48
2023-01-31T08:18:40.577Z,-4.64
2023-01-31T08:21:12.530Z,-3.19
2023-01-31T08:23:41.922Z,-2.15
2023-01-31T08:26:22.013Z,-1.72
2023-01-31T08:28:53.512Z,-1.70
2023-01-31T08:31:25.592Z,-1.42
2023-01-31T08:33:55.583Z,-1.00
2023-01-31T08:36:27.830Z,-0.53
2023-01-31T08:38:57.227Z,-0.42
2023-01-31T08:41:27.459Z,-0.48
2023-01-31T08:43:59.209Z,-0.51
2023-01-31T08:46:32.941Z,-0.51
2023-01-31T08:49:03.253Z,-0.69
2023-01-31T08:51:32.554Z,-0.89
2023-01-31T08:54:01.496Z,-1.07
2023-01-31T08:56:30.430Z,-1.26
2023-01-31T08:58:59.354Z,-1.28
2023-01-31T09:01:29.227Z,-1.43
2023-01-31T09:03:59.019Z,-1.87
2023-01-31T09:06:28.990Z,-2.42
2023-01-31T09:08:59.373Z,-2.98
2023-01-31T09:11:30.844Z,-3.29
2023-01-31T09:14:00.023Z,-3.61
2023-01-31T09:16:29.205Z,-4.00
2023-01-31T09:18:58.217Z,-4.35
2023-01-31T09:21:27.260Z,-4.71
2023-01-31T09:23:59.635Z,-5.41
2023-01-31T09:26:28.884Z,-6.30
2023-01-31T09:28:59.468Z,-7.09
2023-01-31T09:31:28.711Z,-7.90
2023-01-31T09:33:57.796Z,-8.55
2023-01-31T09:36:27.157Z,-9.10
2023-01-31T09:38:57.370Z,-9.51
2023-01-31T09:41:38.378Z,-9.92
2023-01-31T09:44:15.665Z,-10.12
2023-01-31T09:47:06.243Z,-10.44
2023-01-31T09:49:46.793Z,-10.67
2023-01-31T09:52:15.714Z,-10.88
2023-01-31T09:54:46.376Z,-11.08
2023-01-31T09:57:45.280Z,-11.32
2023-01-31T10:00:26.865Z,-11.50
2023-01-31T10:03:28.332Z,-11.68
2023-01-31T10:06:14.584Z,-11.80
2023-01-31T10:08:43.396Z,-11.88
2023-01-31T10:11:18.735Z,-12.00
2023-01-31T10:13:58.342Z,-12.04
2023-01-31T10:17:04.369Z,-12.17
2023-01-31T10:19:45.509Z,-12.25
2023-01-31T10:23:03.407Z,-12.35
2023-01-31T10:25:39.493Z,-12.44
2023-01-31T10:28:30.887Z,-12.50
2023-01-31T10:31:24.876Z,-12.56
2023-01-31T10:34:04.786Z,-12.63
2023-01-31T10:36:36.075Z,-12.65
2023-01-31T10:39:22.150Z,-12.70
2023-01-31T10:42:14.061Z,-12.75
2023-01-31T10:44:56.411Z,-12.81
2023-01-31T10:47:48.892Z,-12.95
2023-01-31T10:50:31.573Z,-13.05
2023-01-31T10:53:32.783Z,-13.07
2023-01-31T10:56:22.921Z,-13.10
2023-01-31T10:58:53.800Z,-13.18
2023-01-31T11:01:23.516Z,-13.19
2023-01-31T11:03:55.508Z,-13.32
2023-01-31T11:06:25.769Z,-13.28
2023-01-31T11:09:02.174Z,-13.31
2023-01-31T11:11:31.113Z,-13.33
2023-01-31T11:14:06.031Z,-13.36
2023-01-31T11:16:40.578Z,-13.40
2023-01-31T11:19:45.237Z,-13.57
2023-01-31T11:22:34.639Z,-13.70
2023-01-31T11:25:05.377Z,-13.77
2023-01-31T11:27:39.411Z,-13.83
2023-01-31T11:30:21.086Z,-13.87
2023-01-31T11:32:50.635Z,-13.91
2023-01-31T11:35:19.661Z,-13.93
2023-01-31T11:37:54.132Z,-13.94
2023-01-31T11:40:36.356Z,-13.99
2023-01-31T11:43:07.743Z,-13.94
2023-01-31T11:45:44.053Z,-13.92
2023-01-31T11:48:20.450Z,-13.96
2023-01-31T11:50:55.141Z,-14.03
2023-01-31T11:53:27.860Z,-14.09
2023-01-31T11:56:13.871Z,-14.12
2023-01-31T11:58:44.332Z,-14.23
2023-01-31T12:01:17.670Z,-14.24
2023-01-31T12:04:02.692Z,-14.32
2023-01-31T12:06:42.253Z,-14.34
2023-01-31T12:09:26.298Z,-14.32
2023-01-31T12:11:58.346Z,-14.34
2023-01-31T12:14:40.442Z,-14.33
2023-01-31T12:17:18.692Z,-14.39
2023-01-31T12:19:56.578Z,-14.39
2023-01-31T12:22:28.306Z,-14.42
2023-01-31T12:25:16.582Z,-14.43
2023-01-31T12:28:19.654Z,-14.45
2023-01-31T12:31:06.995Z,-14.47
2023-01-31T12:33:38.694Z,-14.54
2023-01-31T12:36:22.649Z,-14.61
2023-01-31T12:38:59.228Z,-14.67
2023-01-31T12:41:42.668Z,-14.80
2023-01-31T12:44:32.409Z,-14.79
2023-01-31T12:47:16.828Z,-14.90
2023-01-31T12:50:16.420Z,-14.97
2023-01-31T12:53:08.934Z,-15.01
2023-01-31T12:55:50.734Z,-15.01
2023-01-31T12:58:38.027Z,-15.06
2023-01-31T13:01:49.643Z,-15.13
2023-01-31T13:04:32.277Z,-15.19
2023-01-31T13:07:06.816Z,-15.29
2023-01-31T13:09:39.436Z,-15.33
2023-01-31T13:12:20.492Z,-15.35
2023-01-31T13:15:29.725Z,-15.32
2023-01-31T13:18:04.068Z,-15.33
2023-01-31T13:20:43.004Z,-15.43
2023-01-31T13:23:32.515Z,-15.35
2023-01-31T13:26:27.553Z,-15.41
2023-01-31T13:29:19.484Z,-15.47
2023-01-31T13:32:11.001Z,-15.51
2023-01-31T13:34:53.017Z,-15.57
2023-01-31T13:37:22.798Z,-15.57
2023-01-31T13:40:04.009Z,-15.61
2023-01-31T13:42:33.896Z,-15.64
2023-01-31T13:45:08.439Z,-15.72
2023-01-31T13:47:52.145Z,-15.86
2023-01-31T13:50:50.075Z,-15.73
2023-01-31T13:53:27.079Z,-15.75
2023-01-31T13:55:56.275Z,-15.76
2023-01-31T13:58:37.578Z,-15.83
2023-01-31T14:01:16.961Z,-15.78
2023-01-31T14:04:18.021Z,-15.79
2023-01-31T14:07:16.575Z,-15.83
2023-01-31T14:09:51.838Z,-15.83
2023-01-31T14:12:20.631Z,-15.81
2023-01-31T14:14:54.267Z,-15.78
2023-01-31T14:17:23.202Z,-15.74
2023-01-31T14:19:52.177Z,-15.72
2023-01-31T14:22:24.128Z,-15.77
2023-01-31T14:25:00.665Z,-15.78
2023-01-31T14:27:43.866Z,-15.85
2023-01-31T14:30:34.649Z,-15.88
2023-01-31T14:33:16.168Z,-15.87
2023-01-31T14:36:13.100Z,-15.77
2023-01-31T14:38:51.571Z,-15.76
2023-01-31T14:41:40.610Z,-15.80
2023-01-31T14:44:44.750Z,-15.78
2023-01-31T14:47:26.651Z,-15.78
2023-01-31T14:50:32.070Z,-15.76
2023-01-31T14:53:12.812Z,-15.77
2023-01-31T14:55:50.418Z,-15.83
2023-01-31T14:58:25.401Z,-15.86
2023-01-31T15:01:04.102Z,-16.05
2023-01-31T15:03:41.183Z,-15.99
2023-01-31T15:06:26.783Z,-15.97
2023-01-31T15:09:18.239Z,-15.91
2023-01-31T15:11:48.689Z,-16.04
2023-01-31T15:14:37.467Z,-15.93
2023-01-31T15:17:35.698Z,-16.02
2023-01-31T15:20:21.291Z,-15.95
2023-01-31T15:22:51.509Z,-16.10
2023-01-31T15:25:44.956Z,-15.97
2023-01-31T15:28:17.280Z,-16.08
2023-01-31T15:30:47.251Z,-16.10
2023-01-31T15:33:28.818Z,-16.12
2023-01-31T15:36:09.925Z,-16.17
2023-01-31T15:38:41.709Z,-16.13
2023-01-31T15:41:23.256Z,-16.13
2023-01-31T15:43:57.808Z,-16.29
2023-01-31T15:46:31.492Z,-16.19
2023-01-31T15:49:01.661Z,-16.23
2023-01-31T15:51:32.878Z,-16.26
2023-01-31T15:54:07.258Z,-16.44
2023-01-31T15:56:40.343Z,-16.28
2023-01-31T15:59:14.965Z,-16.28
2023-01-31T16:01:50.503Z,-16.20
2023-01-31T16:04:19.898Z,-16.15
2023-01-31T16:06:48.939Z,-16.12
2023-01-31T16:09:32.872Z,-16.14
2023-01-31T16:12:03.471Z,-16.17
2023-01-31T16:15:34.232Z,-16.18
2023-01-31T16:18:38.094Z,-16.24
2023-01-31T16:22:22.438Z,-16.16
2023-01-31T16:24:58.492Z,-16.16
2023-01-31T16:27:33.601Z,-16.19
2023-01-31T16:30:02.641Z,-16.21
2023-01-31T16:32:38.762Z,-16.24
2023-01-31T16:35:30.165Z,-16.20
2023-01-31T16:38:08.776Z,-16.15
2023-01-31T16:40:53.477Z,-16.21
2023-01-31T16:43:28.407Z,-16.19
2023-01-31T16:46:18.559Z,-16.20
2023-01-31T16:49:03.739Z,-16.25
2023-01-31T16:51:33.285Z,-16.27
2023-01-31T16:54:24.631Z,-16.28
2023-01-31T16:57:02.780Z,-16.31
2023-01-31T16:59:34.728Z,-16.30
2023-01-31T17:02:40.493Z,-16.32
2023-01-31T17:05:32.193Z,-16.29
2023-01-31T17:08:01.049Z,-16.26
2023-01-31T17:10:32.081Z,-16.23
2023-01-31T17:13:17.694Z,-16.21
2023-01-31T17:15:46.781Z,-16.16
2023-01-31T17:18:16.038Z,-16.13
2023-01-31T17:20:49.916Z,-16.12
2023-01-31T17:23:19.549Z,-16.07
2023-01-31T17:25:48.924Z,-16.05
2023-01-31T17:28:17.737Z,-16.02
2023-01-31T17:30:46.994Z,-16.01
2023-01-31T17:33:16.509Z,-15.94
2023-01-31T17:35:48.392Z,-15.93
2023-01-31T17:38:17.316Z,-15.88
2023-01-31T17:40:49.762Z,-15.86
2023-01-31T17:43:25.722Z,-15.77
2023-01-31T17:45:54.668Z,-15.81
2023-01-31T17:48:26.600Z,-15.81
2023-01-31T17:50:56.183Z,-15.85
2023-01-31T17:53:25.191Z,-15.94
2023-01-31T17:55:55.495Z,-16.02
2023-01-31T17:58:25.263Z,-16.06
2023-01-31T18:00:56.117Z,-16.15
2023-01-31T18:03:27.560Z,-16.22
2023-01-31T18:06:04.378Z,-16.28
2023-01-31T18:08:33.580Z,-16.36
2023-01-31T18:11:11.283Z,-16.30
2023-01-31T18:13:40.602Z,-16.31
2023-01-31T18:16:13.558Z,-16.34
2023-01-31T18:18:46.464Z,-16.36
2023-01-31T18:21:18.198Z,-16.36
2023-01-31T18:24:04.954Z,-16.38
2023-01-31T18:26:34.040Z,-16.39
2023-01-31T18:29:02.966Z,-16.44
2023-01-31T18:31:32.480Z,-16.53
2023-01-31T18:34:01.581Z,-16.52
2023-01-31T18:36:30.398Z,-16.58
2023-01-31T18:38:59.157Z,-16.59
2023-01-31T18:41:28.004Z,-16.56
2023-01-31T18:43:56.820Z,-16.59
2023-01-31T18:46:26.184Z,-16.62
2023-01-31T18:48:55.294Z,-16.62
2023-01-31T18:51:24.108Z,-16.60
2023-01-31T18:53:53.091Z,-16.54
2023-01-31T18:56:24.227Z,-16.53
2023-01-31T18:58:54.931Z,-16.54
2023-01-31T19:01:26.553Z,-16.55
2023-01-31T19:03:58.123Z,-16.53
2023-01-31T19:06:35.974Z,-16.52
2023-01-31T19:09:07.374Z,-16.51
2023-01-31T19:11:36.351Z,-16.52
2023-01-31T19:14:09.867Z,-16.52
2023-01-31T19:16:41.123Z,-16.53
2023-01-31T19:19:11.287Z,-16.52
2023-01-31T19:21:40.507Z,-16.52
2023-01-31T19:24:13.408Z,-16.57
2023-01-31T19:26:43.034Z,-16.53
2023-01-31T19:29:16.175Z,-16.57
2023-01-31T19:31:45.776Z,-16.63
2023-01-31T19:34:14.734Z,-16.58
2023-01-31T19:36:45.294Z,-16.56
2023-01-31T19:39:14.922Z,-16.54
2023-01-31T19:41:43.726Z,-16.52
2023-01-31T19:44:12.699Z,-16.52
2023-01-31T19:46:41.529Z,-16.53
2023-01-31T19:49:10.449Z,-16.57
2023-01-31T19:51:39.306Z,-16.53
2023-01-31T19:54:08.511Z,-16.51
2023-01-31T19:56:39.064Z,-16.48
2023-01-31T19:59:08.002Z,-16.52
2023-01-31T20:01:37.401Z,-16.52
2023-01-31T20:04:06.678Z,-16.50
2023-01-31T20:06:35.761Z,-16.52
2023-01-31T20:09:08.764Z,-16.54
2023-01-31T20:11:37.695Z,-16.57
2023-01-31T20:14:07.073Z,-16.62
2023-01-31T20:16:35.981Z,-16.57
2023-01-31T20:19:07.076Z,-16.54
2023-01-31T20:21:36.181Z,-16.55
2023-01-31T20:24:05.168Z,-16.57
2023-01-31T20:26:35.759Z,-16.54
2023-01-31T20:29:05.025Z,-16.55
2023-01-31T20:31:33.882Z,-16.50
2023-01-31T20:34:02.785Z,-16.47
2023-01-31T20:36:31.613Z,-16.42
2023-01-31T20:39:00.468Z,-16.40
2023-01-31T20:41:30.153Z,-16.42
2023-01-31T20:43:58.983Z,-16.41
2023-01-31T20:46:27.883Z,-16.46
2023-01-31T20:48:58.782Z,-16.49
2023-01-31T20:51:27.690Z,-16.44
2023-01-31T20:53:56.581Z,-16.48
2023-01-31T20:56:25.467Z,-16.46
2023-01-31T20:58:54.442Z,-16.47
2023-01-31T21:01:23.911Z,-16.49
2023-01-31T21:03:53.047Z,-16.47
2023-01-31T21:06:21.887Z,-16.46
2023-01-31T21:08:50.795Z,-16.41
2023-01-31T21:11:19.786Z,-16.34
2023-01-31T21:13:48.941Z,-16.27
2023-01-31T21:16:17.896Z,-16.27
2023-01-31T21:18:46.785Z,-16.28
2023-01-31T21:21:23.872Z,-16.26
2023-01-31T21:23:54.110Z,-16.29
2023-01-31T21:26:25.678Z,-16.30
2023-01-31T21:28:55.690Z,-16.29
2023-01-31T21:31:24.958Z,-16.27
2023-01-31T21:33:54.123Z,-16.26
2023-01-31T21:36:26.116Z,-16.27
2023-01-31T21:38:55.262Z,-16.24
2023-01-31T21:41:42.260Z,-16.25
2023-01-31T21:44:11.176Z,-16.23
2023-01-31T21:46:39.921Z,-16.23
2023-01-31T21:49:09.069Z,-16.23
2023-01-31T21:51:38.112Z,-16.22
2023-01-31T21:54:07.029Z,-16.22
2023-01-31T21:56:35.862Z,-16.22
2023-01-31T21:59:05.241Z,-16.26
2023-01-31T22:01:36.895Z,-16.33
2023-01-31T22:04:05.944Z,-16.35
2023-01-31T22:06:40.552Z,-16.36
2023-01-31T22:09:12.752Z,-16.42
2023-01-31T22:11:42.947Z,-16.43
2023-01-31T22:14:14.317Z,-16.39
2023-01-31T22:16:43.678Z,-16.36
2023-01-31T22:19:14.079Z,-16.38
2023-01-31T22:21:43.950Z,-16.44
2023-01-31T22:24:12.838Z,-16.54
2023-01-31T22:26:44.411Z,-16.62
2023-01-31T22:29:16.207Z,-16.68
2023-01-31T22:31:45.895Z,-16.74
2023-01-31T22:34:16.979Z,-16.75
2023-01-31T22:36:45.763Z,-16.78
2023-01-31T22:39:16.463Z,-16.90
2023-01-31T22:41:45.386Z,-16.96
2023-01-31T22:44:14.481Z,-17.05
2023-01-31T22:46:43.344Z,-17.19
2023-01-31T22:49:12.238Z,-17.29
2023-01-31T22:51:41.073Z,-17.37
2023-01-31T22:54:10.032Z,-17.39
2023-01-31T22:56:38.898Z,-17.34
2023-01-31T22:59:10.287Z,-17.29
2023-01-31T23:01:40.271Z,-17.30
2023-01-31T23:04:11.280Z,-17.35
2023-01-31T23:06:40.272Z,-17.40
2023-01-31T23:09:09.100Z,-17.57
2023-01-31T23:11:38.707Z,-17.77
2023-01-31T23:14:07.678Z,-17.85
2023-01-31T23:16:55.009Z,-17.90
2023-01-31T23:19:24.109Z,-17.89
2023-01-31T23:21:52.994Z,-17.84
2023-01-31T23:24:21.887Z,-17.92
2023-01-31T23:26:50.850Z,-17.98
2023-01-31T23:29:19.724Z,-18.03
2023-01-31T23:31:48.623Z,-17.95
2023-01-31T23:34:17.411Z,-17.94
2023-01-31T23:36:46.223Z,-17.98
2023-01-31T23:39:15.043Z,-17.97
2023-01-31T23:41:44.136Z,-17.93
2023-01-31T23:44:13.125Z,-17.93
2023-01-31T23:46:41.987Z,-18.01
2023-01-31T23:49:10.936Z,-18.08
2023-01-31T23:51:39.803Z,-18.11
2023-01-31T23:54:08.777Z,-18.16
2023-01-31T23:56:37.607Z,-18.26
2023-01-31T23:59:06.478Z,-18.38
